sensor_id;sensor_type;location;lat;lon;timestamp;P1;durP1;ratioP1;P2;durP2;ratioP2
19780;SDS011;10050;55.492;13.506;2023-06-22T00:00:59;4.53;;;3.37;;
19780;SDS011;10050;55.492;13.506;2023-06-22T00:03:25;4.80;;;3.33;;
19780;SDS011;10050;55.492;13.506;2023-06-22T00:05:51;6.20;;;3.53;;
19780;SDS011;10050;55.492;13.506;2023-06-22T00:08:21;3.50;;;3.20;;
19780;SDS011;10050;55.492;13.506;2023-06-22T00:10:47;4.13;;;3.00;;
19780;SDS011;10050;55.492;13.506;2023-06-22T00:13:12;4.77;;;3.03;;
19780;SDS011;10050;55.492;13.506;2023-06-22T00:15:39;5.33;;;3.10;;
19780;SDS011;10050;55.492;13.506;2023-06-22T00:18:06;4.73;;;3.33;;
19780;SDS011;10050;55.492;13.506;2023-06-22T00:20:34;3.60;;;3.27;;
19780;SDS011;10050;55.492;13.506;2023-06-22T00:23:04;4.13;;;3.47;;
19780;SDS011;10050;55.492;13.506;2023-06-22T00:25:34;5.13;;;3.70;;
19780;SDS011;10050;55.492;13.506;2023-06-22T00:28:01;7.57;;;3.63;;
19780;SDS011;10050;55.492;13.506;2023-06-22T00:30:27;3.90;;;3.43;;
19780;SDS011;10050;55.492;13.506;2023-06-22T00:32:53;6.23;;;4.13;;
19780;SDS011;10050;55.492;13.506;2023-06-22T00:35:19;4.60;;;3.60;;
19780;SDS011;10050;55.492;13.506;2023-06-22T00:37:44;5.60;;;3.77;;
19780;SDS011;10050;55.492;13.506;2023-06-22T00:40:10;4.43;;;3.67;;
19780;SDS011;10050;55.492;13.506;2023-06-22T00:42:40;5.43;;;4.33;;
19780;SDS011;10050;55.492;13.506;2023-06-22T00:45:06;5.60;;;4.37;;
19780;SDS011;10050;55.492;13.506;2023-06-22T00:47:35;4.87;;;3.63;;
19780;SDS011;10050;55.492;13.506;2023-06-22T00:50:02;4.07;;;3.60;;
19780;SDS011;10050;55.492;13.506;2023-06-22T00:52:30;6.00;;;3.97;;
19780;SDS011;10050;55.492;13.506;2023-06-22T00:54:58;9.57;;;4.13;;
19780;SDS011;10050;55.492;13.506;2023-06-22T00:57:26;6.67;;;4.00;;
19780;SDS011;10050;55.492;13.506;2023-06-22T00:59:53;4.20;;;3.43;;
19780;SDS011;10050;55.492;13.506;2023-06-22T01:02:19;5.03;;;3.90;;
19780;SDS011;10050;55.492;13.506;2023-06-22T01:04:45;6.50;;;4.20;;
19780;SDS011;10050;55.492;13.506;2023-06-22T01:07:14;4.33;;;3.97;;
19780;SDS011;10050;55.492;13.506;2023-06-22T01:12:33;5.13;;;3.83;;
19780;SDS011;10050;55.492;13.506;2023-06-22T01:15:38;5.60;;;3.90;;
19780;SDS011;10050;55.492;13.506;2023-06-22T01:18:03;4.53;;;4.13;;
19780;SDS011;10050;55.492;13.506;2023-06-22T01:20:30;4.90;;;3.43;;
19780;SDS011;10050;55.492;13.506;2023-06-22T01:23:07;4.43;;;4.03;;
19780;SDS011;10050;55.492;13.506;2023-06-22T01:28:46;4.17;;;3.70;;
19780;SDS011;10050;55.492;13.506;2023-06-22T01:31:17;6.20;;;4.50;;
19780;SDS011;10050;55.492;13.506;2023-06-22T01:33:47;7.13;;;4.37;;
19780;SDS011;10050;55.492;13.506;2023-06-22T01:36:21;5.13;;;4.50;;
19780;SDS011;10050;55.492;13.506;2023-06-22T01:38:47;5.73;;;5.07;;
19780;SDS011;10050;55.492;13.506;2023-06-22T01:41:14;5.47;;;4.97;;
19780;SDS011;10050;55.492;13.506;2023-06-22T01:43:41;6.90;;;4.90;;
19780;SDS011;10050;55.492;13.506;2023-06-22T01:46:08;5.73;;;5.23;;
19780;SDS011;10050;55.492;13.506;2023-06-22T01:48:35;5.73;;;4.30;;
19780;SDS011;10050;55.492;13.506;2023-06-22T01:51:01;6.27;;;5.37;;
19780;SDS011;10050;55.492;13.506;2023-06-22T01:53:28;4.87;;;4.47;;
19780;SDS011;10050;55.492;13.506;2023-06-22T01:55:53;8.73;;;6.33;;
19780;SDS011;10050;55.492;13.506;2023-06-22T01:58:20;9.90;;;5.43;;
19780;SDS011;10050;55.492;13.506;2023-06-22T02:00:49;7.77;;;5.00;;
19780;SDS011;10050;55.492;13.506;2023-06-22T02:03:25;6.50;;;5.43;;
19780;SDS011;10050;55.492;13.506;2023-06-22T02:05:58;6.27;;;5.00;;
19780;SDS011;10050;55.492;13.506;2023-06-22T02:08:28;6.13;;;5.53;;
19780;SDS011;10050;55.492;13.506;2023-06-22T02:11:02;6.67;;;5.00;;
19780;SDS011;10050;55.492;13.506;2023-06-22T02:13:30;5.60;;;4.60;;
19780;SDS011;10050;55.492;13.506;2023-06-22T02:15:57;5.70;;;5.07;;
19780;SDS011;10050;55.492;13.506;2023-06-22T02:18:23;6.00;;;5.33;;
19780;SDS011;10050;55.492;13.506;2023-06-22T02:20:50;6.50;;;5.90;;
19780;SDS011;10050;55.492;13.506;2023-06-22T02:23:15;7.77;;;6.40;;
19780;SDS011;10050;55.492;13.506;2023-06-22T02:25:41;8.47;;;6.03;;
19780;SDS011;10050;55.492;13.506;2023-06-22T02:28:09;6.33;;;5.23;;
19780;SDS011;10050;55.492;13.506;2023-06-22T02:30:35;5.30;;;4.87;;
19780;SDS011;10050;55.492;13.506;2023-06-22T02:33:00;6.53;;;5.87;;
19780;SDS011;10050;55.492;13.506;2023-06-22T02:35:27;5.47;;;4.97;;
19780;SDS011;10050;55.492;13.506;2023-06-22T02:37:57;8.37;;;5.93;;
19780;SDS011;10050;55.492;13.506;2023-06-22T02:40:24;8.00;;;5.43;;
19780;SDS011;10050;55.492;13.506;2023-06-22T02:42:50;9.97;;;6.17;;
19780;SDS011;10050;55.492;13.506;2023-06-22T02:45:16;6.00;;;5.40;;
19780;SDS011;10050;55.492;13.506;2023-06-22T02:47:41;5.80;;;5.20;;
19780;SDS011;10050;55.492;13.506;2023-06-22T02:50:07;5.37;;;4.87;;
19780;SDS011;10050;55.492;13.506;2023-06-22T02:52:33;11.67;;;5.70;;
19780;SDS011;10050;55.492;13.506;2023-06-22T02:54:59;5.70;;;4.97;;
19780;SDS011;10050;55.492;13.506;2023-06-22T02:57:24;5.30;;;4.80;;
19780;SDS011;10050;55.492;13.506;2023-06-22T02:59:50;5.63;;;5.00;;
19780;SDS011;10050;55.492;13.506;2023-06-22T03:02:16;9.47;;;5.90;;
19780;SDS011;10050;55.492;13.506;2023-06-22T03:04:41;5.77;;;5.27;;
19780;SDS011;10050;55.492;13.506;2023-06-22T03:07:08;5.73;;;5.20;;
19780;SDS011;10050;55.492;13.506;2023-06-22T03:09:33;6.80;;;5.60;;
19780;SDS011;10050;55.492;13.506;2023-06-22T03:11:59;7.43;;;5.57;;
19780;SDS011;10050;55.492;13.506;2023-06-22T03:14:25;6.27;;;5.40;;
19780;SDS011;10050;55.492;13.506;2023-06-22T03:16:51;6.73;;;5.37;;
19780;SDS011;10050;55.492;13.506;2023-06-22T03:19:16;7.67;;;5.77;;
19780;SDS011;10050;55.492;13.506;2023-06-22T03:21:42;6.97;;;5.70;;
19780;SDS011;10050;55.492;13.506;2023-06-22T03:24:08;7.40;;;6.10;;
19780;SDS011;10050;55.492;13.506;2023-06-22T03:26:33;10.23;;;5.47;;
19780;SDS011;10050;55.492;13.506;2023-06-22T03:28:59;5.93;;;5.43;;
19780;SDS011;10050;55.492;13.506;2023-06-22T03:31:25;6.77;;;5.13;;
19780;SDS011;10050;55.492;13.506;2023-06-22T03:33:51;8.77;;;5.47;;
19780;SDS011;10050;55.492;13.506;2023-06-22T03:36:17;8.30;;;5.80;;
19780;SDS011;10050;55.492;13.506;2023-06-22T03:38:47;4.97;;;4.57;;
19780;SDS011;10050;55.492;13.506;2023-06-22T03:41:14;7.63;;;5.03;;
19780;SDS011;10050;55.492;13.506;2023-06-22T03:43:40;5.73;;;5.13;;
19780;SDS011;10050;55.492;13.506;2023-06-22T03:46:06;6.07;;;5.47;;
19780;SDS011;10050;55.492;13.506;2023-06-22T03:48:32;5.90;;;5.27;;
19780;SDS011;10050;55.492;13.506;2023-06-22T03:51:01;7.47;;;5.30;;
19780;SDS011;10050;55.492;13.506;2023-06-22T03:53:28;6.80;;;4.90;;
19780;SDS011;10050;55.492;13.506;2023-06-22T03:55:54;7.00;;;4.70;;
19780;SDS011;10050;55.492;13.506;2023-06-22T03:58:19;5.47;;;4.97;;
19780;SDS011;10050;55.492;13.506;2023-06-22T04:00:46;6.00;;;5.13;;
19780;SDS011;10050;55.492;13.506;2023-06-22T04:03:13;6.47;;;5.70;;
19780;SDS011;10050;55.492;13.506;2023-06-22T04:05:39;7.03;;;5.80;;
19780;SDS011;10050;55.492;13.506;2023-06-22T04:08:05;5.53;;;5.00;;
19780;SDS011;10050;55.492;13.506;2023-06-22T04:10:31;5.90;;;4.87;;
19780;SDS011;10050;55.492;13.506;2023-06-22T04:12:56;5.00;;;4.50;;
19780;SDS011;10050;55.492;13.506;2023-06-22T04:15:22;4.77;;;4.27;;
19780;SDS011;10050;55.492;13.506;2023-06-22T04:17:48;5.27;;;4.77;;
19780;SDS011;10050;55.492;13.506;2023-06-22T04:20:13;6.90;;;5.23;;
19780;SDS011;10050;55.492;13.506;2023-06-22T04:22:39;8.97;;;5.30;;
19780;SDS011;10050;55.492;13.506;2023-06-22T04:25:05;6.57;;;5.13;;
19780;SDS011;10050;55.492;13.506;2023-06-22T04:27:32;8.40;;;5.20;;
19780;SDS011;10050;55.492;13.506;2023-06-22T04:30:02;5.80;;;4.50;;
19780;SDS011;10050;55.492;13.506;2023-06-22T04:32:29;6.67;;;5.17;;
19780;SDS011;10050;55.492;13.506;2023-06-22T04:34:54;10.60;;;6.00;;
19780;SDS011;10050;55.492;13.506;2023-06-22T04:37:20;6.27;;;4.80;;
19780;SDS011;10050;55.492;13.506;2023-06-22T04:39:48;7.27;;;5.03;;
19780;SDS011;10050;55.492;13.506;2023-06-22T04:42:14;7.00;;;5.03;;
19780;SDS011;10050;55.492;13.506;2023-06-22T04:44:40;6.70;;;4.57;;
19780;SDS011;10050;55.492;13.506;2023-06-22T04:47:06;7.67;;;5.27;;
19780;SDS011;10050;55.492;13.506;2023-06-22T04:49:33;9.47;;;4.93;;
19780;SDS011;10050;55.492;13.506;2023-06-22T04:52:05;7.27;;;4.90;;
19780;SDS011;10050;55.492;13.506;2023-06-22T04:54:32;9.53;;;5.17;;
19780;SDS011;10050;55.492;13.506;2023-06-22T04:56:59;5.63;;;4.23;;
19780;SDS011;10050;55.492;13.506;2023-06-22T04:59:26;8.17;;;5.43;;
19780;SDS011;10050;55.492;13.506;2023-06-22T05:01:55;5.03;;;4.53;;
19780;SDS011;10050;55.492;13.506;2023-06-22T05:04:21;6.30;;;4.63;;
19780;SDS011;10050;55.492;13.506;2023-06-22T05:06:48;6.47;;;4.13;;
19780;SDS011;10050;55.492;13.506;2023-06-22T05:09:14;6.63;;;4.73;;
19780;SDS011;10050;55.492;13.506;2023-06-22T05:11:40;7.47;;;4.63;;
19780;SDS011;10050;55.492;13.506;2023-06-22T05:14:05;4.33;;;3.93;;
19780;SDS011;10050;55.492;13.506;2023-06-22T05:16:32;5.40;;;4.10;;
19780;SDS011;10050;55.492;13.506;2023-06-22T05:18:58;7.83;;;4.50;;
19780;SDS011;10050;55.492;13.506;2023-06-22T05:21:25;7.17;;;4.53;;
19780;SDS011;10050;55.492;13.506;2023-06-22T05:23:52;6.17;;;4.30;;
19780;SDS011;10050;55.492;13.506;2023-06-22T05:26:18;7.40;;;4.17;;
19780;SDS011;10050;55.492;13.506;2023-06-22T05:28:45;6.93;;;4.63;;
19780;SDS011;10050;55.492;13.506;2023-06-22T05:31:12;7.13;;;4.07;;
19780;SDS011;10050;55.492;13.506;2023-06-22T05:33:38;3.70;;;3.40;;
19780;SDS011;10050;55.492;13.506;2023-06-22T05:36:07;6.47;;;3.60;;
19780;SDS011;10050;55.492;13.506;2023-06-22T05:38:33;4.43;;;3.77;;
19780;SDS011;10050;55.492;13.506;2023-06-22T05:40:58;5.80;;;3.97;;
19780;SDS011;10050;55.492;13.506;2023-06-22T05:43:24;4.30;;;3.70;;
19780;SDS011;10050;55.492;13.506;2023-06-22T05:45:50;5.77;;;3.57;;
19780;SDS011;10050;55.492;13.506;2023-06-22T05:48:15;5.80;;;3.73;;
19780;SDS011;10050;55.492;13.506;2023-06-22T05:50:41;3.83;;;3.50;;
19780;SDS011;10050;55.492;13.506;2023-06-22T05:53:07;5.10;;;3.67;;
19780;SDS011;10050;55.492;13.506;2023-06-22T05:55:33;6.27;;;4.17;;
19780;SDS011;10050;55.492;13.506;2023-06-22T05:57:58;4.17;;;3.63;;
19780;SDS011;10050;55.492;13.506;2023-06-22T06:00:24;4.70;;;3.60;;
19780;SDS011;10050;55.492;13.506;2023-06-22T06:02:50;5.33;;;3.70;;
19780;SDS011;10050;55.492;13.506;2023-06-22T06:05:16;4.33;;;3.93;;
19780;SDS011;10050;55.492;13.506;2023-06-22T06:07:42;7.80;;;3.83;;
19780;SDS011;10050;55.492;13.506;2023-06-22T06:10:08;4.07;;;3.50;;
19780;SDS011;10050;55.492;13.506;2023-06-22T06:12:34;7.63;;;3.70;;
19780;SDS011;10050;55.492;13.506;2023-06-22T06:15:00;4.80;;;3.37;;
19780;SDS011;10050;55.492;13.506;2023-06-22T06:17:26;6.00;;;4.30;;
19780;SDS011;10050;55.492;13.506;2023-06-22T06:19:52;3.87;;;3.40;;
19780;SDS011;10050;55.492;13.506;2023-06-22T06:22:17;6.50;;;3.90;;
19780;SDS011;10050;55.492;13.506;2023-06-22T06:24:44;5.13;;;3.80;;
19780;SDS011;10050;55.492;13.506;2023-06-22T06:27:10;4.57;;;3.60;;
19780;SDS011;10050;55.492;13.506;2023-06-22T06:29:36;5.70;;;3.73;;
19780;SDS011;10050;55.492;13.506;2023-06-22T06:32:02;7.90;;;3.97;;
19780;SDS011;10050;55.492;13.506;2023-06-22T06:34:31;4.87;;;3.63;;
19780;SDS011;10050;55.492;13.506;2023-06-22T06:36:56;6.80;;;3.50;;
19780;SDS011;10050;55.492;13.506;2023-06-22T06:39:22;3.87;;;3.17;;
19780;SDS011;10050;55.492;13.506;2023-06-22T06:41:48;6.30;;;3.20;;
19780;SDS011;10050;55.492;13.506;2023-06-22T06:44:13;3.90;;;3.30;;
19780;SDS011;10050;55.492;13.506;2023-06-22T06:46:39;5.57;;;3.53;;
19780;SDS011;10050;55.492;13.506;2023-06-22T06:49:05;3.53;;;3.23;;
19780;SDS011;10050;55.492;13.506;2023-06-22T06:51:30;3.53;;;2.97;;
19780;SDS011;10050;55.492;13.506;2023-06-22T06:53:56;5.37;;;3.37;;
19780;SDS011;10050;55.492;13.506;2023-06-22T06:56:21;3.53;;;3.23;;
19780;SDS011;10050;55.492;13.506;2023-06-22T06:58:49;4.20;;;3.07;;
19780;SDS011;10050;55.492;13.506;2023-06-22T07:01:15;5.07;;;3.33;;
19780;SDS011;10050;55.492;13.506;2023-06-22T07:03:40;3.10;;;2.83;;
19780;SDS011;10050;55.492;13.506;2023-06-22T07:06:07;3.20;;;2.90;;
19780;SDS011;10050;55.492;13.506;2023-06-22T07:08:33;3.50;;;3.10;;
19780;SDS011;10050;55.492;13.506;2023-06-22T07:11:01;3.43;;;3.10;;
19780;SDS011;10050;55.492;13.506;2023-06-22T07:13:27;6.50;;;3.10;;
19780;SDS011;10050;55.492;13.506;2023-06-22T07:15:53;3.60;;;2.90;;
19780;SDS011;10050;55.492;13.506;2023-06-22T07:18:19;5.37;;;3.13;;
19780;SDS011;10050;55.492;13.506;2023-06-22T07:20:44;3.33;;;3.00;;
19780;SDS011;10050;55.492;13.506;2023-06-22T07:23:10;5.50;;;3.27;;
19780;SDS011;10050;55.492;13.506;2023-06-22T07:25:35;3.10;;;2.80;;
19780;SDS011;10050;55.492;13.506;2023-06-22T07:28:02;3.37;;;3.00;;
19780;SDS011;10050;55.492;13.506;2023-06-22T07:30:29;5.93;;;2.93;;
19780;SDS011;10050;55.492;13.506;2023-06-22T07:32:56;6.13;;;3.37;;
19780;SDS011;10050;55.492;13.506;2023-06-22T07:35:23;5.10;;;2.90;;
19780;SDS011;10050;55.492;13.506;2023-06-22T07:37:48;4.00;;;2.90;;
19780;SDS011;10050;55.492;13.506;2023-06-22T07:40:14;3.20;;;2.90;;
19780;SDS011;10050;55.492;13.506;2023-06-22T07:42:40;4.43;;;2.90;;
19780;SDS011;10050;55.492;13.506;2023-06-22T07:45:06;3.00;;;2.60;;
19780;SDS011;10050;55.492;13.506;2023-06-22T07:47:35;4.23;;;3.13;;
19780;SDS011;10050;55.492;13.506;2023-06-22T07:50:01;4.07;;;2.93;;
19780;SDS011;10050;55.492;13.506;2023-06-22T07:52:30;5.23;;;2.87;;
19780;SDS011;10050;55.492;13.506;2023-06-22T07:54:56;4.30;;;2.47;;
19780;SDS011;10050;55.492;13.506;2023-06-22T07:57:21;2.77;;;2.40;;
19780;SDS011;10050;55.492;13.506;2023-06-22T07:59:47;4.10;;;2.60;;
19780;SDS011;10050;55.492;13.506;2023-06-22T08:02:13;4.27;;;2.83;;
19780;SDS011;10050;55.492;13.506;2023-06-22T08:04:39;3.40;;;2.40;;
19780;SDS011;10050;55.492;13.506;2023-06-22T08:07:06;4.87;;;2.90;;
19780;SDS011;10050;55.492;13.506;2023-06-22T08:09:32;5.83;;;2.97;;
19780;SDS011;10050;55.492;13.506;2023-06-22T08:11:58;3.93;;;2.60;;
19780;SDS011;10050;55.492;13.506;2023-06-22T08:14:27;3.63;;;2.60;;
19780;SDS011;10050;55.492;13.506;2023-06-22T08:16:54;3.60;;;2.50;;
19780;SDS011;10050;55.492;13.506;2023-06-22T08:19:20;3.43;;;2.90;;
19780;SDS011;10050;55.492;13.506;2023-06-22T08:21:45;5.13;;;2.80;;
19780;SDS011;10050;55.492;13.506;2023-06-22T08:24:11;2.80;;;2.60;;
19780;SDS011;10050;55.492;13.506;2023-06-22T08:26:37;3.97;;;2.20;;
19780;SDS011;10050;55.492;13.506;2023-06-22T08:29:03;4.07;;;2.80;;
19780;SDS011;10050;55.492;13.506;2023-06-22T08:31:30;3.63;;;2.87;;
19780;SDS011;10050;55.492;13.506;2023-06-22T08:33:58;3.50;;;2.70;;
19780;SDS011;10050;55.492;13.506;2023-06-22T08:36:24;4.13;;;2.70;;
19780;SDS011;10050;55.492;13.506;2023-06-22T08:38:50;2.70;;;2.50;;
19780;SDS011;10050;55.492;13.506;2023-06-22T08:41:19;6.00;;;2.47;;
19780;SDS011;10050;55.492;13.506;2023-06-22T08:43:44;3.37;;;2.50;;
19780;SDS011;10050;55.492;13.506;2023-06-22T08:46:11;3.63;;;3.00;;
19780;SDS011;10050;55.492;13.506;2023-06-22T08:48:37;3.90;;;2.33;;
19780;SDS011;10050;55.492;13.506;2023-06-22T08:51:02;3.73;;;3.00;;
19780;SDS011;10050;55.492;13.506;2023-06-22T08:53:29;3.03;;;2.73;;
19780;SDS011;10050;55.492;13.506;2023-06-22T08:55:55;3.77;;;2.67;;
19780;SDS011;10050;55.492;13.506;2023-06-22T08:58:21;2.63;;;2.43;;
19780;SDS011;10050;55.492;13.506;2023-06-22T09:00:46;4.00;;;2.50;;
19780;SDS011;10050;55.492;13.506;2023-06-22T09:03:12;3.10;;;2.80;;
19780;SDS011;10050;55.492;13.506;2023-06-22T09:05:38;3.40;;;2.67;;
19780;SDS011;10050;55.492;13.506;2023-06-22T09:08:04;2.80;;;2.37;;
19780;SDS011;10050;55.492;13.506;2023-06-22T09:10:30;4.80;;;3.07;;
19780;SDS011;10050;55.492;13.506;2023-06-22T09:12:56;3.07;;;2.77;;
19780;SDS011;10050;55.492;13.506;2023-06-22T09:15:22;3.93;;;2.50;;
19780;SDS011;10050;55.492;13.506;2023-06-22T09:17:48;2.87;;;2.60;;
19780;SDS011;10050;55.492;13.506;2023-06-22T09:20:14;5.27;;;2.60;;
19780;SDS011;10050;55.492;13.506;2023-06-22T09:22:40;3.10;;;2.80;;
19780;SDS011;10050;55.492;13.506;2023-06-22T09:25:06;4.23;;;3.13;;
19780;SDS011;10050;55.492;13.506;2023-06-22T09:27:32;4.03;;;2.50;;
19780;SDS011;10050;55.492;13.506;2023-06-22T09:29:58;2.70;;;2.50;;
19780;SDS011;10050;55.492;13.506;2023-06-22T09:32:24;6.17;;;2.83;;
19780;SDS011;10050;55.492;13.506;2023-06-22T09:34:50;3.37;;;2.73;;
19780;SDS011;10050;55.492;13.506;2023-06-22T09:37:16;2.50;;;2.30;;
19780;SDS011;10050;55.492;13.506;2023-06-22T09:39:44;2.80;;;2.20;;
19780;SDS011;10050;55.492;13.506;2023-06-22T09:42:10;4.03;;;2.40;;
19780;SDS011;10050;55.492;13.506;2023-06-22T09:44:36;4.10;;;2.50;;
19780;SDS011;10050;55.492;13.506;2023-06-22T09:47:02;3.20;;;2.20;;
19780;SDS011;10050;55.492;13.506;2023-06-22T09:49:27;2.00;;;1.80;;
19780;SDS011;10050;55.492;13.506;2023-06-22T09:51:53;2.27;;;2.07;;
19780;SDS011;10050;55.492;13.506;2023-06-22T09:54:19;2.10;;;1.90;;
19780;SDS011;10050;55.492;13.506;2023-06-22T09:56:44;2.40;;;1.83;;
19780;SDS011;10050;55.492;13.506;2023-06-22T09:59:10;2.50;;;2.30;;
19780;SDS011;10050;55.492;13.506;2023-06-22T10:01:35;3.20;;;2.37;;
19780;SDS011;10050;55.492;13.506;2023-06-22T10:04:01;1.93;;;1.83;;
19780;SDS011;10050;55.492;13.506;2023-06-22T10:06:27;3.80;;;2.40;;
19780;SDS011;10050;55.492;13.506;2023-06-22T10:08:53;10.13;;;2.57;;
19780;SDS011;10050;55.492;13.506;2023-06-22T10:11:19;2.90;;;2.10;;
19780;SDS011;10050;55.492;13.506;2023-06-22T10:13:44;2.83;;;1.97;;
19780;SDS011;10050;55.492;13.506;2023-06-22T10:16:10;3.33;;;2.27;;
19780;SDS011;10050;55.492;13.506;2023-06-22T10:18:36;3.20;;;1.60;;
19780;SDS011;10050;55.492;13.506;2023-06-22T10:21:01;3.00;;;1.77;;
19780;SDS011;10050;55.492;13.506;2023-06-22T10:23:27;2.60;;;2.07;;
19780;SDS011;10050;55.492;13.506;2023-06-22T10:25:53;2.27;;;2.00;;
19780;SDS011;10050;55.492;13.506;2023-06-22T10:28:18;2.43;;;2.23;;
19780;SDS011;10050;55.492;13.506;2023-06-22T10:30:44;2.63;;;2.10;;
19780;SDS011;10050;55.492;13.506;2023-06-22T10:33:11;4.27;;;2.13;;
19780;SDS011;10050;55.492;13.506;2023-06-22T10:35:37;2.17;;;1.97;;
19780;SDS011;10050;55.492;13.506;2023-06-22T10:38:03;2.57;;;2.20;;
19780;SDS011;10050;55.492;13.506;2023-06-22T10:40:30;1.83;;;1.73;;
19780;SDS011;10050;55.492;13.506;2023-06-22T10:42:56;2.00;;;1.87;;
19780;SDS011;10050;55.492;13.506;2023-06-22T10:45:21;2.43;;;2.20;;
19780;SDS011;10050;55.492;13.506;2023-06-22T10:47:47;1.97;;;1.83;;
19780;SDS011;10050;55.492;13.506;2023-06-22T10:50:13;2.00;;;1.90;;
19780;SDS011;10050;55.492;13.506;2023-06-22T10:52:39;2.97;;;1.73;;
19780;SDS011;10050;55.492;13.506;2023-06-22T10:55:06;1.80;;;1.60;;
19780;SDS011;10050;55.492;13.506;2023-06-22T10:57:32;4.53;;;2.00;;
19780;SDS011;10050;55.492;13.506;2023-06-22T10:59:58;2.00;;;1.80;;
19780;SDS011;10050;55.492;13.506;2023-06-22T11:02:24;2.00;;;1.90;;
19780;SDS011;10050;55.492;13.506;2023-06-22T11:04:50;2.17;;;1.80;;
19780;SDS011;10050;55.492;13.506;2023-06-22T11:07:15;1.77;;;1.67;;
19780;SDS011;10050;55.492;13.506;2023-06-22T11:09:42;1.60;;;1.50;;
19780;SDS011;10050;55.492;13.506;2023-06-22T11:12:08;3.23;;;1.80;;
19780;SDS011;10050;55.492;13.506;2023-06-22T11:14:34;3.33;;;1.80;;
19780;SDS011;10050;55.492;13.506;2023-06-22T11:17:00;1.60;;;1.50;;
19780;SDS011;10050;55.492;13.506;2023-06-22T11:19:26;2.47;;;1.90;;
19780;SDS011;10050;55.492;13.506;2023-06-22T11:21:51;2.43;;;2.20;;
19780;SDS011;10050;55.492;13.506;2023-06-22T11:24:17;1.80;;;1.70;;
19780;SDS011;10050;55.492;13.506;2023-06-22T11:26:43;4.17;;;2.50;;
19780;SDS011;10050;55.492;13.506;2023-06-22T11:29:08;1.83;;;1.73;;
19780;SDS011;10050;55.492;13.506;2023-06-22T11:31:34;3.07;;;2.33;;
19780;SDS011;10050;55.492;13.506;2023-06-22T11:34:00;1.97;;;1.83;;
19780;SDS011;10050;55.492;13.506;2023-06-22T11:36:27;2.30;;;2.10;;
19780;SDS011;10050;55.492;13.506;2023-06-22T11:38:54;2.13;;;1.93;;
19780;SDS011;10050;55.492;13.506;2023-06-22T11:41:19;2.40;;;2.10;;
19780;SDS011;10050;55.492;13.506;2023-06-22T11:43:45;1.93;;;1.83;;
19780;SDS011;10050;55.492;13.506;2023-06-22T11:46:11;2.67;;;2.47;;
19780;SDS011;10050;55.492;13.506;2023-06-22T11:48:36;4.33;;;1.90;;
19780;SDS011;10050;55.492;13.506;2023-06-22T11:51:02;8.00;;;2.30;;
19780;SDS011;10050;55.492;13.506;2023-06-22T11:53:28;2.10;;;1.90;;
19780;SDS011;10050;55.492;13.506;2023-06-22T11:55:54;2.37;;;2.10;;
19780;SDS011;10050;55.492;13.506;2023-06-22T11:58:21;2.50;;;2.30;;
19780;SDS011;10050;55.492;13.506;2023-06-22T12:00:47;3.00;;;2.20;;
19780;SDS011;10050;55.492;13.506;2023-06-22T12:03:13;2.13;;;1.93;;
19780;SDS011;10050;55.492;13.506;2023-06-22T12:05:39;3.53;;;1.90;;
19780;SDS011;10050;55.492;13.506;2023-06-22T12:08:05;2.53;;;2.30;;
19780;SDS011;10050;55.492;13.506;2023-06-22T12:10:31;1.93;;;1.83;;
19780;SDS011;10050;55.492;13.506;2023-06-22T12:12:57;2.60;;;2.03;;
19780;SDS011;10050;55.492;13.506;2023-06-22T12:15:24;2.00;;;1.90;;
19780;SDS011;10050;55.492;13.506;2023-06-22T12:17:50;2.43;;;2.20;;
19780;SDS011;10050;55.492;13.506;2023-06-22T12:20:16;3.17;;;2.00;;
19780;SDS011;10050;55.492;13.506;2023-06-22T12:22:42;2.00;;;1.80;;
19780;SDS011;10050;55.492;13.506;2023-06-22T12:25:09;2.43;;;2.23;;
19780;SDS011;10050;55.492;13.506;2023-06-22T12:27:35;2.10;;;1.93;;
19780;SDS011;10050;55.492;13.506;2023-06-22T12:30:01;3.70;;;2.27;;
19780;SDS011;10050;55.492;13.506;2023-06-22T12:32:28;3.97;;;2.20;;
19780;SDS011;10050;55.492;13.506;2023-06-22T12:34:54;2.27;;;2.07;;
19780;SDS011;10050;55.492;13.506;2023-06-22T12:37:19;4.37;;;2.60;;
19780;SDS011;10050;55.492;13.506;2023-06-22T12:39:45;2.70;;;2.50;;
19780;SDS011;10050;55.492;13.506;2023-06-22T12:42:10;2.97;;;2.30;;
19780;SDS011;10050;55.492;13.506;2023-06-22T12:44:40;4.77;;;2.00;;
19780;SDS011;10050;55.492;13.506;2023-06-22T12:47:09;2.10;;;1.87;;
19780;SDS011;10050;55.492;13.506;2023-06-22T12:49:35;3.43;;;2.47;;
19780;SDS011;10050;55.492;13.506;2023-06-22T12:52:01;2.63;;;2.10;;
19780;SDS011;10050;55.492;13.506;2023-06-22T12:54:27;3.20;;;2.20;;
19780;SDS011;10050;55.492;13.506;2023-06-22T12:56:54;2.60;;;2.40;;
19780;SDS011;10050;55.492;13.506;2023-06-22T12:59:20;4.70;;;2.07;;
19780;SDS011;10050;55.492;13.506;2023-06-22T13:01:45;1.97;;;1.87;;
19780;SDS011;10050;55.492;13.506;2023-06-22T13:04:11;2.67;;;2.27;;
19780;SDS011;10050;55.492;13.506;2023-06-22T13:06:40;4.50;;;2.40;;
19780;SDS011;10050;55.492;13.506;2023-06-22T13:09:06;2.23;;;2.00;;
19780;SDS011;10050;55.492;13.506;2023-06-22T13:11:31;2.30;;;2.10;;
19780;SDS011;10050;55.492;13.506;2023-06-22T13:13:57;2.43;;;2.23;;
19780;SDS011;10050;55.492;13.506;2023-06-22T13:16:23;2.50;;;2.30;;
19780;SDS011;10050;55.492;13.506;2023-06-22T13:18:49;2.63;;;1.90;;
19780;SDS011;10050;55.492;13.506;2023-06-22T13:21:14;2.13;;;1.93;;
19780;SDS011;10050;55.492;13.506;2023-06-22T13:23:40;2.70;;;2.37;;
19780;SDS011;10050;55.492;13.506;2023-06-22T13:26:05;2.53;;;2.33;;
19780;SDS011;10050;55.492;13.506;2023-06-22T13:28:32;2.83;;;2.57;;
19780;SDS011;10050;55.492;13.506;2023-06-22T13:30:58;2.87;;;2.47;;
19780;SDS011;10050;55.492;13.506;2023-06-22T13:33:24;2.27;;;1.87;;
19780;SDS011;10050;55.492;13.506;2023-06-22T13:35:52;3.10;;;2.90;;
19780;SDS011;10050;55.492;13.506;2023-06-22T13:38:17;2.83;;;2.57;;
19780;SDS011;10050;55.492;13.506;2023-06-22T13:40:43;2.90;;;2.37;;
19780;SDS011;10050;55.492;13.506;2023-06-22T13:43:09;2.53;;;2.33;;
19780;SDS011;10050;55.492;13.506;2023-06-22T13:45:34;2.80;;;2.40;;
19780;SDS011;10050;55.492;13.506;2023-06-22T13:48:00;2.63;;;2.30;;
19780;SDS011;10050;55.492;13.506;2023-06-22T13:50:26;2.37;;;2.17;;
19780;SDS011;10050;55.492;13.506;2023-06-22T13:52:51;2.80;;;2.60;;
19780;SDS011;10050;55.492;13.506;2023-06-22T13:55:17;3.10;;;2.63;;
19780;SDS011;10050;55.492;13.506;2023-06-22T13:57:44;2.97;;;2.67;;
19780;SDS011;10050;55.492;13.506;2023-06-22T14:00:10;2.40;;;2.20;;
19780;SDS011;10050;55.492;13.506;2023-06-22T14:02:37;2.40;;;2.30;;
19780;SDS011;10050;55.492;13.506;2023-06-22T14:05:04;2.53;;;2.23;;
19780;SDS011;10050;55.492;13.506;2023-06-22T14:07:31;7.00;;;2.20;;
19780;SDS011;10050;55.492;13.506;2023-06-22T14:09:56;3.10;;;2.80;;
19780;SDS011;10050;55.492;13.506;2023-06-22T14:12:23;2.50;;;2.30;;
19780;SDS011;10050;55.492;13.506;2023-06-22T14:14:49;3.57;;;2.50;;
19780;SDS011;10050;55.492;13.506;2023-06-22T14:17:14;5.23;;;2.40;;
19780;SDS011;10050;55.492;13.506;2023-06-22T14:19:40;2.60;;;2.07;;
19780;SDS011;10050;55.492;13.506;2023-06-22T14:22:06;3.27;;;2.87;;
19780;SDS011;10050;55.492;13.506;2023-06-22T14:24:34;2.93;;;2.60;;
19780;SDS011;10050;55.492;13.506;2023-06-22T14:27:00;2.83;;;2.60;;
19780;SDS011;10050;55.492;13.506;2023-06-22T14:29:28;4.67;;;2.07;;
19780;SDS011;10050;55.492;13.506;2023-06-22T14:31:53;2.57;;;2.37;;
19780;SDS011;10050;55.492;13.506;2023-06-22T14:34:19;3.77;;;2.00;;